sensor_id;sensor_type;location;lat;lon;timestamp;pressure;altitude;pressure_sealevel;temperature;humidity
10510;BME280;5303;53.266;10.410;2023-11-18T00:01:32;102209.31;;;3.87;100.00
10510;BME280;5303;53.266;10.410;2023-11-18T00:04:00;102205.75;;;3.85;100.00
10510;BME280;5303;53.266;10.410;2023-11-18T00:06:26;102211.94;;;3.87;100.00
10510;BME280;5303;53.266;10.410;2023-11-18T00:08:51;102214.84;;;3.93;100.00
10510;BME280;5303;53.266;10.410;2023-11-18T00:11:17;102208.66;;;3.91;100.00
10510;BME280;5303;53.266;10.410;2023-11-18T00:13:44;102206.13;;;3.93;100.00
10510;BME280;5303;53.266;10.410;2023-11-18T00:16:10;102206.81;;;3.89;100.00
10510;BME280;5303;53.266;10.410;2023-11-18T00:18:42;102204.94;;;3.86;100.00
10510;BME280;5303;53.266;10.410;2023-11-18T00:21:07;102203.00;;;3.82;100.00
10510;BME280;5303;53.266;10.410;2023-11-18T00:23:34;102200.28;;;3.79;100.00
10510;BME280;5303;53.266;10.410;2023-11-18T00:25:59;102191.44;;;3.77;100.00
10510;BME280;5303;53.266;10.410;2023-11-18T00:28:25;102195.88;;;3.78;100.00
10510;BME280;5303;53.266;10.410;2023-11-18T00:30:50;102184.50;;;3.78;100.00
10510;BME280;5303;53.266;10.410;2023-11-18T00:33:15;102180.06;;;3.75;100.00
10510;BME280;5303;53.266;10.410;2023-11-18T00:35:41;102184.50;;;3.78;100.00
10510;BME280;5303;53.266;10.410;2023-11-18T00:38:06;102188.94;;;3.79;100.00
10510;BME280;5303;53.266;10.410;2023-11-18T00:40:31;102187.22;;;3.79;100.00
10510;BME280;5303;53.266;10.410;2023-11-18T00:42:57;102185.34;;;3.76;100.00
10510;BME280;5303;53.266;10.410;2023-11-18T00:45:22;102181.84;;;3.76;100.00
10510;BME280;5303;53.266;10.410;2023-11-18T00:47:47;102184.50;;;3.78;100.00
10510;BME280;5303;53.266;10.410;2023-11-18T00:50:13;102188.84;;;3.77;100.00
10510;BME280;5303;53.266;10.410;2023-11-18T00:52:39;102195.78;;;3.76;100.00
10510;BME280;5303;53.266;10.410;2023-11-18T00:55:09;102197.50;;;3.76;100.00
10510;BME280;5303;53.266;10.410;2023-11-18T00:57:36;102195.06;;;3.79;100.00
10510;BME280;5303;53.266;10.410;2023-11-18T01:00:07;102206.16;;;3.75;100.00
10510;BME280;5303;53.266;10.410;2023-11-18T01:02:39;102206.31;;;3.78;100.00
10510;BME280;5303;53.266;10.410;2023-11-18T01:05:04;102205.31;;;3.76;100.00
10510;BME280;5303;53.266;10.410;2023-11-18T01:07:29;102212.25;;;3.75;100.00
10510;BME280;5303;53.266;10.410;2023-11-18T01:09:55;102209.59;;;3.74;100.00
10510;BME280;5303;53.266;10.410;2023-11-18T01:12:20;102207.94;;;3.76;100.00
10510;BME280;5303;53.266;10.410;2023-11-18T01:14:45;102218.38;;;3.76;100.00
10510;BME280;5303;53.266;10.410;2023-11-18T01:17:10;102221.97;;;3.78;100.00
10510;BME280;5303;53.266;10.410;2023-11-18T01:19:36;102214.16;;;3.78;100.00
10510;BME280;5303;53.266;10.410;2023-11-18T01:22:01;102218.44;;;3.78;100.00
10510;BME280;5303;53.266;10.410;2023-11-18T01:24:30;102218.38;;;3.76;100.00
10510;BME280;5303;53.266;10.410;2023-11-18T01:26:55;102213.16;;;3.76;100.00
10510;BME280;5303;53.266;10.410;2023-11-18T01:29:20;102213.16;;;3.76;100.00
10510;BME280;5303;53.266;10.410;2023-11-18T01:31:47;102216.75;;;3.78;100.00
10510;BME280;5303;53.266;10.410;2023-11-18T01:34:12;102219.44;;;3.80;100.00
10510;BME280;5303;53.266;10.410;2023-11-18T01:36:37;102223.00;;;3.82;100.00
10510;BME280;5303;53.266;10.410;2023-11-18T01:39:03;102223.13;;;3.85;100.00
10510;BME280;5303;53.266;10.410;2023-11-18T01:41:30;102225.81;;;3.86;100.00
10510;BME280;5303;53.266;10.410;2023-11-18T01:43:57;102231.94;;;3.87;100.00
10510;BME280;5303;53.266;10.410;2023-11-18T01:46:24;102238.03;;;3.87;100.00
10510;BME280;5303;53.266;10.410;2023-11-18T01:48:49;102238.03;;;3.87;100.00
10510;BME280;5303;53.266;10.410;2023-11-18T01:51:16;102235.66;;;3.92;100.00
10510;BME280;5303;53.266;10.410;2023-11-18T01:53:47;102232.34;;;3.96;100.00
10510;BME280;5303;53.266;10.410;2023-11-18T01:56:13;102225.28;;;3.93;100.00
10510;BME280;5303;53.266;10.410;2023-11-18T01:58:40;102230.50;;;3.93;100.00
10510;BME280;5303;53.266;10.410;2023-11-18T02:01:06;102234.06;;;3.95;100.00
10510;BME280;5303;53.266;10.410;2023-11-18T02:03:34;102232.34;;;3.96;100.00
10510;BME280;5303;53.266;10.410;2023-11-18T02:05:59;102236.63;;;3.94;100.00
10510;BME280;5303;53.266;10.410;2023-11-18T02:08:24;102235.78;;;3.95;100.00
10510;BME280;5303;53.266;10.410;2023-11-18T02:11:03;102222.69;;;3.93;100.00
10510;BME280;5303;53.266;10.410;2023-11-18T02:13:38;102226.25;;;3.95;100.00
10510;BME280;5303;53.266;10.410;2023-11-18T02:16:07;102235.72;;;3.93;100.00
10510;BME280;5303;53.266;10.410;2023-11-18T02:18:33;102245.34;;;3.94;100.00
10510;BME280;5303;53.266;10.410;2023-11-18T02:21:00;102234.91;;;3.94;100.00
10510;BME280;5303;53.266;10.410;2023-11-18T02:23:26;102245.47;;;3.97;100.00
10510;BME280;5303;53.266;10.410;2023-11-18T02:25:52;102244.53;;;3.95;100.00
10510;BME280;5303;53.266;10.410;2023-11-18T02:28:17;102234.97;;;3.96;100.00
10510;BME280;5303;53.266;10.410;2023-11-18T02:30:43;102244.44;;;3.94;100.00
10510;BME280;5303;53.266;10.410;2023-11-18T02:33:27;102254.91;;;3.94;100.00
10510;BME280;5303;53.266;10.410;2023-11-18T02:36:31;102255.78;;;3.94;100.00
10510;BME280;5303;53.266;10.410;2023-11-18T02:39:04;102259.34;;;3.96;100.00
10510;BME280;5303;53.266;10.410;2023-11-18T02:41:36;102259.28;;;3.95;100.00
10510;BME280;5303;53.266;10.410;2023-11-18T02:44:04;102263.75;;;3.97;100.00
10510;BME280;5303;53.266;10.410;2023-11-18T02:46:36;102261.16;;;3.97;100.00
10510;BME280;5303;53.266;10.410;2023-11-18T02:49:01;102264.66;;;3.98;100.00
10510;BME280;5303;53.266;10.410;2023-11-18T02:51:27;102266.47;;;3.99;100.00
10510;BME280;5303;53.266;10.410;2023-11-18T02:53:53;102269.06;;;3.99;100.00
10510;BME280;5303;53.266;10.410;2023-11-18T02:56:19;102273.53;;;4.01;100.00
10510;BME280;5303;53.266;10.410;2023-11-18T02:58:45;102272.59;;;3.99;100.00
10510;BME280;5303;53.266;10.410;2023-11-18T03:01:10;102275.03;;;3.96;100.00
10510;BME280;5303;53.266;10.410;2023-11-18T03:03:35;102271.69;;;3.99;100.00
10510;BME280;5303;53.266;10.410;2023-11-18T03:06:01;102276.09;;;4.00;100.00
10510;BME280;5303;53.266;10.410;2023-11-18T03:08:26;102280.41;;;3.99;100.00
10510;BME280;5303;53.266;10.410;2023-11-18T03:10:54;102272.66;;;4.01;100.00
10510;BME280;5303;53.266;10.410;2023-11-18T03:13:20;102277.09;;;4.03;100.00
10510;BME280;5303;53.266;10.410;2023-11-18T03:15:45;102275.31;;;4.02;100.00
10510;BME280;5303;53.266;10.410;2023-11-18T03:18:13;102278.75;;;4.01;100.00
10510;BME280;5303;53.266;10.410;2023-11-18T03:20:38;102275.31;;;4.02;100.00
10510;BME280;5303;53.266;10.410;2023-11-18T03:23:04;102277.94;;;4.02;100.00
10510;BME280;5303;53.266;10.410;2023-11-18T03:25:32;102277.94;;;4.02;100.00
10510;BME280;5303;53.266;10.410;2023-11-18T03:27:57;102269.22;;;4.02;100.00
10510;BME280;5303;53.266;10.410;2023-11-18T03:30:23;102276.22;;;4.03;100.00
10510;BME280;5303;53.266;10.410;2023-11-18T03:32:48;102264.88;;;4.02;100.00
10510;BME280;5303;53.266;10.410;2023-11-18T03:35:13;102266.66;;;4.03;100.00
10510;BME280;5303;53.266;10.410;2023-11-18T03:37:39;102264.88;;;4.02;100.00
10510;BME280;5303;53.266;10.410;2023-11-18T03:40:09;102267.56;;;4.04;100.00
10510;BME280;5303;53.266;10.410;2023-11-18T03:42:35;102266.66;;;4.03;100.00
10510;BME280;5303;53.266;10.410;2023-11-18T03:45:01;102264.06;;;4.03;100.00
10510;BME280;5303;53.266;10.410;2023-11-18T03:47:26;102262.28;;;4.02;100.00
10510;BME280;5303;53.266;10.410;2023-11-18T03:49:51;102265.00;;;4.05;100.00
10510;BME280;5303;53.266;10.410;2023-11-18T03:52:19;102260.69;;;4.06;100.00
10510;BME280;5303;53.266;10.410;2023-11-18T03:54:45;102272.03;;;4.07;100.00
10510;BME280;5303;53.266;10.410;2023-11-18T03:57:10;102270.16;;;4.04;100.00
10510;BME280;5303;53.266;10.410;2023-11-18T03:59:35;102276.34;;;4.06;100.00
10510;BME280;5303;53.266;10.410;2023-11-18T04:02:01;102278.13;;;4.07;100.00
10510;BME280;5303;53.266;10.410;2023-11-18T04:04:26;102283.34;;;4.07;100.00
10510;BME280;5303;53.266;10.410;2023-11-18T04:06:52;102282.63;;;4.10;100.00
10510;BME280;5303;53.266;10.410;2023-11-18T04:09:17;102276.59;;;4.11;100.00
10510;BME280;5303;53.266;10.410;2023-11-18T04:11:43;102283.53;;;4.10;100.00
10510;BME280;5303;53.266;10.410;2023-11-18T04:14:10;102283.53;;;4.10;100.00
10510;BME280;5303;53.266;10.410;2023-11-18T04:16:36;102280.97;;;4.12;100.00
10510;BME280;5303;53.266;10.410;2023-11-18T04:19:03;102278.31;;;4.10;100.00
10510;BME280;5303;53.266;10.410;2023-11-18T04:21:28;102279.72;;;4.03;100.00
10510;BME280;5303;53.266;10.410;2023-11-18T04:23:53;102285.00;;;4.05;100.00
10510;BME280;5303;53.266;10.410;2023-11-18T04:26:20;102278.91;;;4.04;100.00
10510;BME280;5303;53.266;10.410;2023-11-18T04:28:45;102281.44;;;4.03;100.00
10510;BME280;5303;53.266;10.410;2023-11-18T04:31:10;102282.91;;;3.98;100.00
10510;BME280;5303;53.266;10.410;2023-11-18T04:33:36;102278.69;;;4.00;100.00
10510;BME280;5303;53.266;10.410;2023-11-18T04:36:01;102275.19;;;3.99;100.00
10510;BME280;5303;53.266;10.410;2023-11-18T04:38:28;102276.81;;;3.97;100.00
10510;BME280;5303;53.266;10.410;2023-11-18T04:40:54;102270.69;;;3.97;100.00
10510;BME280;5303;53.266;10.410;2023-11-18T04:43:20;102271.59;;;3.97;100.00
10510;BME280;5303;53.266;10.410;2023-11-18T04:45:45;102273.25;;;3.95;100.00
10510;BME280;5303;53.266;10.410;2023-11-18T04:48:10;102274.88;;;3.93;100.00
10510;BME280;5303;53.266;10.410;2023-11-18T04:50:35;102270.44;;;3.91;100.00
10510;BME280;5303;53.266;10.410;2023-11-18T04:53:01;102266.69;;;3.86;100.00
10510;BME280;5303;53.266;10.410;2023-11-18T04:55:28;102265.66;;;3.82;100.00
10510;BME280;5303;53.266;10.410;2023-11-18T04:57:54;102268.84;;;3.76;100.00
10510;BME280;5303;53.266;10.410;2023-11-18T05:00:20;102278.19;;;3.71;100.00
10510;BME280;5303;53.266;10.410;2023-11-18T05:02:46;102277.00;;;3.65;100.00
10510;BME280;5303;53.266;10.410;2023-11-18T05:05:15;102276.72;;;3.59;100.00
10510;BME280;5303;53.266;10.410;2023-11-18T05:07:41;102274.63;;;3.52;100.00
10510;BME280;5303;53.266;10.410;2023-11-18T05:10:08;102274.31;;;3.45;100.00
10510;BME280;5303;53.266;10.410;2023-11-18T05:12:34;102270.44;;;3.37;100.00
10510;BME280;5303;53.266;10.410;2023-11-18T05:14:59;102270.00;;;3.28;100.00
10510;BME280;5303;53.266;10.410;2023-11-18T05:17:26;102271.31;;;3.20;100.00
10510;BME280;5303;53.266;10.410;2023-11-18T05:19:52;102264.00;;;3.13;100.00
10510;BME280;5303;53.266;10.410;2023-11-18T05:22:17;102258.31;;;3.04;100.00
10510;BME280;5303;53.266;10.410;2023-11-18T05:24:43;102249.19;;;2.96;100.00
10510;BME280;5303;53.266;10.410;2023-11-18T05:27:09;102248.84;;;2.88;100.00
10510;BME280;5303;53.266;10.410;2023-11-18T05:29:34;102244.13;;;2.81;100.00
10510;BME280;5303;53.266;10.410;2023-11-18T05:31:59;102232.47;;;2.74;100.00
10510;BME280;5303;53.266;10.410;2023-11-18T05:34:25;102235.59;;;2.67;100.00
10510;BME280;5303;53.266;10.410;2023-11-18T05:36:50;102236.00;;;2.58;100.00
10510;BME280;5303;53.266;10.410;2023-11-18T05:39:22;102240.81;;;2.51;100.00
10510;BME280;5303;53.266;10.410;2023-11-18T05:41:49;102231.78;;;2.44;100.00
10510;BME280;5303;53.266;10.410;2023-11-18T05:44:15;102238.47;;;2.39;100.00
10510;BME280;5303;53.266;10.410;2023-11-18T05:46:47;102233.19;;;2.38;100.00
10510;BME280;5303;53.266;10.410;2023-11-18T05:49:13;102239.22;;;2.37;100.00
10510;BME280;5303;53.266;10.410;2023-11-18T05:51:39;102238.13;;;2.33;100.00
10510;BME280;5303;53.266;10.410;2023-11-18T05:54:06;102237.97;;;2.30;100.00
10510;BME280;5303;53.266;10.410;2023-11-18T05:56:32;102241.47;;;2.30;100.00
10510;BME280;5303;53.266;10.410;2023-11-18T05:58:57;102249.28;;;2.30;100.00
10510;BME280;5303;53.266;10.410;2023-11-18T06:01:23;102255.47;;;2.33;100.00
10510;BME280;5303;53.266;10.410;2023-11-18T06:03:48;102256.53;;;2.36;100.00
10510;BME280;5303;53.266;10.410;2023-11-18T06:06:15;102252.38;;;2.40;100.00
10510;BME280;5303;53.266;10.410;2023-11-18T06:08:41;102246.50;;;2.44;100.00
10510;BME280;5303;53.266;10.410;2023-11-18T06:11:11;102238.88;;;2.47;100.00
10510;BME280;5303;53.266;10.410;2023-11-18T06:13:43;102238.22;;;2.51;100.00
10510;BME280;5303;53.266;10.410;2023-11-18T06:16:12;102244.38;;;2.53;100.00
10510;BME280;5303;53.266;10.410;2023-11-18T06:18:40;102244.47;;;2.54;100.00
10510;BME280;5303;53.266;10.410;2023-11-18T06:21:06;102248.88;;;2.55;100.00
10510;BME280;5303;53.266;10.410;2023-11-18T06:23:31;102240.16;;;2.55;100.00
10510;BME280;5303;53.266;10.410;2023-11-18T06:25:58;102240.25;;;2.56;100.00
10510;BME280;5303;53.266;10.410;2023-11-18T06:28:25;102252.53;;;2.59;100.00
10510;BME280;5303;53.266;10.410;2023-11-18T06:30:51;102248.16;;;2.58;100.00
10510;BME280;5303;53.266;10.410;2023-11-18T06:33:16;102249.69;;;2.54;100.00
10510;BME280;5303;53.266;10.410;2023-11-18T06:35:42;102248.63;;;2.51;100.00
10510;BME280;5303;53.266;10.410;2023-11-18T06:38:09;102246.69;;;2.47;100.00
10510;BME280;5303;53.266;10.410;2023-11-18T06:40:38;102243.69;;;2.39;100.00
10510;BME280;5303;53.266;10.410;2023-11-18T06:43:03;102251.22;;;2.35;100.00
10510;BME280;5303;53.266;10.410;2023-11-18T06:45:35;102251.00;;;2.30;100.00
10510;BME280;5303;53.266;10.410;2023-11-18T06:48:05;102246.44;;;2.26;100.00
10510;BME280;5303;53.266;10.410;2023-11-18T06:50:31;102238.38;;;2.21;100.00
10510;BME280;5303;53.266;10.410;2023-11-18T06:52:57;102249.38;;;2.16;100.00
10510;BME280;5303;53.266;10.410;2023-11-18T06:55:23;102249.03;;;2.10;100.00
10510;BME280;5303;53.266;10.410;2023-11-18T06:57:48;102247.91;;;2.05;100.00
10510;BME280;5303;53.266;10.410;2023-11-18T07:00:14;102240.63;;;1.99;100.00
10510;BME280;5303;53.266;10.410;2023-11-18T07:02:40;102253.50;;;1.96;100.00
10510;BME280;5303;53.266;10.410;2023-11-18T07:05:05;102261.31;;;1.96;100.00
10510;BME280;5303;53.266;10.410;2023-11-18T07:07:31;102264.59;;;1.93;100.00
10510;BME280;5303;53.266;10.410;2023-11-18T07:09:57;102269.56;;;1.89;100.00
10510;BME280;5303;53.266;10.410;2023-11-18T07:12:22;102277.47;;;1.90;100.00
10510;BME280;5303;53.266;10.410;2023-11-18T07:14:48;102279.97;;;1.89;100.00
10510;BME280;5303;53.266;10.410;2023-11-18T07:17:14;102285.19;;;1.89;100.00
10510;BME280;5303;53.266;10.410;2023-11-18T07:19:39;102293.00;;;1.89;100.00
10510;BME280;5303;53.266;10.410;2023-11-18T07:22:05;102300.06;;;1.91;100.00
10510;BME280;5303;53.266;10.410;2023-11-18T07:24:32;102310.56;;;1.93;100.00
10510;BME280;5303;53.266;10.410;2023-11-18T07:26:57;102315.13;;;1.97;100.00
10510;BME280;5303;53.266;10.410;2023-11-18T07:29:25;102308.31;;;1.99;100.00
10510;BME280;5303;53.266;10.410;2023-11-18T07:31:51;102311.81;;;1.99;100.00
10510;BME280;5303;53.266;10.410;2023-11-18T07:34:16;102312.03;;;2.04;100.00
10510;BME280;5303;53.266;10.410;2023-11-18T07:36:41;102314.03;;;2.08;100.00
10510;BME280;5303;53.266;10.410;2023-11-18T07:39:11;102306.38;;;2.11;100.00
10510;BME280;5303;53.266;10.410;2023-11-18T07:41:41;102302.13;;;2.13;100.00
10510;BME280;5303;53.266;10.410;2023-11-18T07:44:07;102291.91;;;2.16;100.00
10510;BME280;5303;53.266;10.410;2023-11-18T07:46:32;102286.06;;;2.20;100.00
10510;BME280;5303;53.266;10.410;2023-11-18T07:48:57;102290.59;;;2.24;100.00
10510;BME280;5303;53.266;10.410;2023-11-18T07:51:23;102292.56;;;2.28;100.00
10510;BME280;5303;53.266;10.410;2023-11-18T07:53:50;102300.47;;;2.30;100.00
10510;BME280;5303;53.266;10.410;2023-11-18T07:56:15;102299.91;;;2.36;100.00
10510;BME280;5303;53.266;10.410;2023-11-18T07:58:42;102303.50;;;2.38;100.00
10510;BME280;5303;53.266;10.410;2023-11-18T08:01:11;102313.16;;;2.40;100.00
10510;BME280;5303;53.266;10.410;2023-11-18T08:03:36;102315.13;;;2.44;100.00
10510;BME280;5303;53.266;10.410;2023-11-18T08:06:02;102309.50;;;2.53;100.00
10510;BME280;5303;53.266;10.410;2023-11-18T08:08:28;102306.97;;;2.54;100.00
10510;BME280;5303;53.266;10.410;2023-11-18T08:10:53;102314.00;;;2.55;100.00
10510;BME280;5303;53.266;10.410;2023-11-18T08:13:21;102307.25;;;2.59;100.00
10510;BME280;5303;53.266;10.410;2023-11-18T08:15:46;102307.31;;;2.60;100.00
10510;BME280;5303;53.266;10.410;2023-11-18T08:18:12;102316.19;;;2.64;100.00
10510;BME280;5303;53.266;10.410;2023-11-18T08:20:38;102307.66;;;2.67;100.00
10510;BME280;5303;53.266;10.410;2023-11-18T08:23:04;102307.06;;;2.72;100.00
10510;BME280;5303;53.266;10.410;2023-11-18T08:25:31;102303.00;;;2.77;100.00
10510;BME280;5303;53.266;10.410;2023-11-18T08:28:01;102304.06;;;2.81;100.00
10510;BME280;5303;53.266;10.410;2023-11-18T08:30:26;102309.66;;;2.88;100.00
10510;BME280;5303;53.266;10.410;2023-11-18T08:32:52;102304.75;;;2.95;100.00
10510;BME280;5303;53.266;10.410;2023-11-18T08:35:17;102304.94;;;2.98;100.00
10510;BME280;5303;53.266;10.410;2023-11-18T08:37:43;102305.09;;;3.01;100.00
10510;BME280;5303;53.266;10.410;2023-11-18T08:40:10;102291.31;;;3.03;100.00
10510;BME280;5303;53.266;10.410;2023-11-18T08:42:47;102281.13;;;3.08;100.00
10510;BME280;5303;53.266;10.410;2023-11-18T08:45:20;102279.50;;;3.10;100.00
10510;BME280;5303;53.266;10.410;2023-11-18T08:47:47;102280.66;;;3.16;100.00
10510;BME280;5303;53.266;10.410;2023-11-18T08:50:16;102268.78;;;3.22;100.00
10510;BME280;5303;53.266;10.410;2023-11-18T08:52:45;102261.91;;;3.24;100.00
10510;BME280;5303;53.266;10.410;2023-11-18T08:55:13;102268.03;;;3.24;100.00
10510;BME280;5303;53.266;10.410;2023-11-18T08:57:49;102269.75;;;3.24;100.00
10510;BME280;5303;53.266;10.410;2023-11-18T09:00:26;102264.53;;;3.24;100.00
10510;BME280;5303;53.266;10.410;2023-11-18T09:03:30;102271.47;;;3.23;100.00
10510;BME280;5303;53.266;10.410;2023-11-18T09:06:08;102277.50;;;3.22;100.00
10510;BME280;5303;53.266;10.410;2023-11-18T09:08:45;102274.97;;;3.24;100.00
10510;BME280;5303;53.266;10.410;2023-11-18T09:11:12;102263.00;;;3.27;100.00
10510;BME280;5303;53.266;10.410;2023-11-18T09:13:41;102267.72;;;3.36;100.00
10510;BME280;5303;53.266;10.410;2023-11-18T09:16:08;102267.31;;;3.44;100.00
10510;BME280;5303;53.266;10.410;2023-11-18T09:18:35;102264.31;;;3.55;100.00
10510;BME280;5303;53.266;10.410;2023-11-18T09:21:03;102260.38;;;3.63;100.00
10510;BME280;5303;53.266;10.410;2023-11-18T09:23:32;102247.91;;;3.75;100.00
10510;BME280;5303;53.266;10.410;2023-11-18T09:26:02;102248.22;;;3.81;100.00
10510;BME280;5303;53.266;10.410;2023-11-18T09:28:33;102249.47;;;3.89;100.00
10510;BME280;5303;53.266;10.410;2023-11-18T09:31:08;102242.66;;;3.93;100.00
10510;BME280;5303;53.266;10.410;2023-11-18T09:33:39;102244.53;;;3.95;100.00
10510;BME280;5303;53.266;10.410;2023-11-18T09:36:10;102231.75;;;4.01;100.00
10510;BME280;5303;53.266;10.410;2023-11-18T09:38:40;102241.56;;;4.07;100.00
10510;BME280;5303;53.266;10.410;2023-11-18T09:41:10;102230.41;;;4.10;100.00
10510;BME280;5303;53.266;10.410;2023-11-18T09:43:39;102231.44;;;4.13;100.00
10510;BME280;5303;53.266;10.410;2023-11-18T09:46:14;102231.50;;;4.15;100.00
10510;BME280;5303;53.266;10.410;2023-11-18T09:48:51;102227.09;;;4.14;100.00
10510;BME280;5303;53.266;10.410;2023-11-18T09:51:25;102226.13;;;4.12;100.00
10510;BME280;5303;53.266;10.410;2023-11-18T09:53:59;102220.09;;;4.13;100.00
10510;BME280;5303;53.266;10.410;2023-11-18T09:56:51;102229.56;;;4.11;100.00
10510;BME280;5303;53.266;10.410;2023-11-18T09:59:51;102231.50;;;4.15;100.00
10510;BME280;5303;53.266;10.410;2023-11-18T10:02:20;102235.88;;;4.16;100.00
10510;BME280;5303;53.266;10.410;2023-11-18T10:04:49;102236.84;;;4.18;100.00
10510;BME280;5303;53.266;10.410;2023-11-18T10:07:25;102241.25;;;4.19;100.00
10510;BME280;5303;53.266;10.410;2023-11-18T10:09:57;102239.69;;;4.22;100.00
10510;BME280;5303;53.266;10.410;2023-11-18T10:12:23;102231.09;;;4.25;100.00
10510;BME280;5303;53.266;10.410;2023-11-18T10:14:49;102229.59;;;4.30;100.00
10510;BME280;5303;53.266;10.410;2023-11-18T10:17:17;102238.50;;;4.35;100.00
10510;BME280;5303;53.266;10.410;2023-11-18T10:19:58;102224.75;;;4.39;100.00
10510;BME280;5303;53.266;10.410;2023-11-18T10:22:37;102219.81;;;4.45;100.00
10510;BME280;5303;53.266;10.410;2023-11-18T10:25:03;102210.53;;;4.52;100.00
10510;BME280;5303;53.266;10.410;2023-11-18T10:27:31;102204.66;;;4.57;100.00
10510;BME280;5303;53.266;10.410;2023-11-18T10:30:04;102211.84;;;4.61;100.00
10510;BME280;5303;53.266;10.410;2023-11-18T10:32:30;102209.03;;;4.78;100.00
10510;BME280;5303;53.266;10.410;2023-11-18T10:35:00;102199.47;;;4.78;100.00
10510;BME280;5303;53.266;10.410;2023-11-18T10:37:26;102190.94;;;4.82;100.00
10510;BME280;5303;53.266;10.410;2023-11-18T10:39:56;102186.72;;;4.86;100.00
10510;BME280;5303;53.266;10.410;2023-11-18T10:42:22;102183.56;;;4.93;100.00
10510;BME280;5303;53.266;10.410;2023-11-18T10:44:54;102173.22;;;4.96;100.00
10510;BME280;5303;53.266;10.410;2023-11-18T10:47:24;102170.72;;;4.99;100.00
10510;BME280;5303;53.266;10.410;2023-11-18T10:49:51;102164.66;;;5.00;100.00
10510;BME280;5303;53.266;10.410;2023-11-18T10:52:16;102161.34;;;5.04;100.00
10510;BME280;5303;53.266;10.410;2023-11-18T10:54:52;102153.72;;;5.10;100.00
10510;BME280;5303;53.266;10.410;2023-11-18T10:57:20;102146.81;;;5.11;100.00
10510;BME280;5303;53.266;10.410;2023-11-18T10:59:59;102147.81;;;5.14;100.00
10510;BME280;5303;53.266;10.410;2023-11-18T11:02:24;102158.28;;;5.14;100.00
10510;BME280;5303;53.266;10.410;2023-11-18T11:04:50;102153.88;;;5.13;100.00
10510;BME280;5303;53.266;10.410;2023-11-18T11:07:16;102147.97;;;5.19;100.00
10510;BME280;5303;53.266;10.410;2023-11-18T11:09:44;102135.94;;;5.23;100.00
10510;BME280;5303;53.266;10.410;2023-11-18T11:12:12;102123.03;;;5.27;100.00
10510;BME280;5303;53.266;10.410;2023-11-18T11:15:07;102125.84;;;5.32;100.00
10510;BME280;5303;53.266;10.410;2023-11-18T11:17:39;102130.41;;;5.37;100.00
10510;BME280;5303;53.266;10.410;2023-11-18T11:20:13;102122.09;;;5.47;100.00
10510;BME280;5303;53.266;10.410;2023-11-18T11:23:27;102128.88;;;5.65;100.00
10510;BME280;5303;53.266;10.410;2023-11-18T11:26:13;102107.44;;;5.75;100.00
10510;BME280;5303;53.266;10.410;2023-11-18T11:28:43;102104.38;;;5.87;100.00
10510;BME280;5303;53.266;10.410;2023-11-18T11:31:21;102088.47;;;5.82;100.00
10510;BME280;5303;53.266;10.410;2023-11-18T11:34:01;102085.19;;;5.88;100.00
10510;BME280;5303;53.266;10.410;2023-11-18T11:36:37;102075.47;;;5.84;100.00
10510;BME280;5303;53.266;10.410;2023-11-18T11:39:07;102075.00;;;5.71;100.00
10510;BME280;5303;53.266;10.410;2023-11-18T11:41:36;102076.13;;;5.78;100.00
10510;BME280;5303;53.266;10.410;2023-11-18T11:44:03;102084.66;;;5.72;100.00
10510;BME280;5303;53.266;10.410;2023-11-18T11:46:31;102083.47;;;5.64;100.00
10510;BME280;5303;53.266;10.410;2023-11-18T11:49:02;102080.31;;;5.73;100.00
10510;BME280;5303;53.266;10.410;2023-11-18T11:52:07;102075.88;;;5.72;100.00
10510;BME280;5303;53.266;10.410;2023-11-18T11:54:40;102068.09;;;5.73;100.00
10510;BME280;5303;53.266;10.410;2023-11-18T11:57:10;102058.47;;;5.72;100.00
10510;BME280;5303;53.266;10.410;2023-11-18T12:02:14;102051.81;;;5.82;100.00
10510;BME280;5303;53.266;10.410;2023-11-18T12:04:46;102047.31;;;5.78;100.00
10510;BME280;5303;53.266;10.410;2023-11-18T12:07:14;102048.09;;;5.75;100.00
10510;BME280;5303;53.266;10.410;2023-11-18T12:09:41;102041.94;;;5.73;100.00
10510;BME280;5303;53.266;10.410;2023-11-18T12:12:19;102037.41;;;5.69;100.00
10510;BME280;5303;53.266;10.410;2023-11-18T12:14:51;102041.09;;;5.74;100.00
10510;BME280;5303;53.266;10.410;2023-11-18T12:17:17;102035.63;;;5.68;100.00
10510;BME280;5303;53.266;10.410;2023-11-18T12:19:50;102032.09;;;5.68;100.00
10510;BME280;5303;53.266;10.410;2023-11-18T12:22:22;102038.13;;;5.65;100.00
10510;BME280;5303;53.266;10.410;2023-11-18T12:27:49;102043.41;;;5.67;100.00
10510;BME280;5303;53.266;10.410;2023-11-18T12:32:59;102037.63;;;5.75;100.00
10510;BME280;5303;53.266;10.410;2023-11-18T12:38:40;102046.28;;;5.73;100.00
10510;BME280;5303;53.266;10.410;2023-11-18T12:41:35;102034.13;;;5.75;100.00
10510;BME280;5303;53.266;10.410;2023-11-18T12:47:01;102011.44;;;5.75;100.00
10510;BME280;5303;53.266;10.410;2023-11-18T12:49:46;102025.31;;;5.73;100.00
10510;BME280;5303;53.266;10.410;2023-11-18T12:52:22;102015.84;;;5.76;100.00
10510;BME280;5303;53.266;10.410;2023-11-18T12:54:48;102007.03;;;5.74;100.00
10510;BME280;5303;53.266;10.410;2023-11-18T12:57:19;102017.63;;;5.77;100.00
10510;BME280;5303;53.266;10.410;2023-11-18T12:59:47;102023.38;;;5.67;100.00
10510;BME280;5303;53.266;10.410;2023-11-18T13:02:13;102026.53;;;5.59;100.00
10510;BME280;5303;53.266;10.410;2023-11-18T13:04:43;102031.13;;;5.64;100.00
10510;BME280;5303;53.266;10.410;2023-11-18T13:07:13;102029.34;;;5.63;100.00
10510;BME280;5303;53.266;10.410;2023-11-18T13:09:38;102025.97;;;5.67;100.00
10510;BME280;5303;53.266;10.410;2023-11-18T13:12:06;102026.63;;;5.62;100.00